sensor_id;sensor_type;location;lat;lon;timestamp;P1;durP1;ratioP1;P2;durP2;ratioP2
6133;SDS011;3098;42.678;23.364;2023-04-01T00:00:03;23.25;;;9.68;;
6133;SDS011;3098;42.678;23.364;2023-04-01T00:02:31;26.27;;;10.57;;
6133;SDS011;3098;42.678;23.364;2023-04-01T00:04:58;28.50;;;9.15;;
6133;SDS011;3098;42.678;23.364;2023-04-01T00:07:26;19.33;;;9.68;;
6133;SDS011;3098;42.678;23.364;2023-04-01T00:09:53;22.75;;;9.65;;
6133;SDS011;3098;42.678;23.364;2023-04-01T00:12:21;19.10;;;9.10;;
6133;SDS011;3098;42.678;23.364;2023-04-01T00:14:51;33.58;;;9.77;;
6133;SDS011;3098;42.678;23.364;2023-04-01T00:17:18;21.30;;;7.93;;
6133;SDS011;3098;42.678;23.364;2023-04-01T00:19:45;14.32;;;7.25;;
6133;SDS011;3098;42.678;23.364;2023-04-01T00:22:12;21.42;;;8.48;;
6133;SDS011;3098;42.678;23.364;2023-04-01T00:24:39;16.63;;;8.00;;
6133;SDS011;3098;42.678;23.364;2023-04-01T00:27:06;19.98;;;7.93;;
6133;SDS011;3098;42.678;23.364;2023-04-01T00:29:33;18.33;;;8.07;;
6133;SDS011;3098;42.678;23.364;2023-04-01T00:32:02;21.42;;;7.97;;
6133;SDS011;3098;42.678;23.364;2023-04-01T00:34:29;20.27;;;8.40;;
6133;SDS011;3098;42.678;23.364;2023-04-01T00:36:56;17.02;;;6.90;;
6133;SDS011;3098;42.678;23.364;2023-04-01T00:39:23;14.32;;;7.22;;
6133;SDS011;3098;42.678;23.364;2023-04-01T00:41:51;14.95;;;6.32;;
6133;SDS011;3098;42.678;23.364;2023-04-01T00:44:19;19.67;;;7.20;;
6133;SDS011;3098;42.678;23.364;2023-04-01T00:46:47;11.75;;;5.78;;
6133;SDS011;3098;42.678;23.364;2023-04-01T00:49:17;17.38;;;7.63;;
6133;SDS011;3098;42.678;23.364;2023-04-01T00:51:47;14.73;;;6.95;;
6133;SDS011;3098;42.678;23.364;2023-04-01T00:54:16;14.68;;;6.85;;
6133;SDS011;3098;42.678;23.364;2023-04-01T00:56:45;15.13;;;6.18;;
6133;SDS011;3098;42.678;23.364;2023-04-01T00:59:18;11.65;;;6.47;;
6133;SDS011;3098;42.678;23.364;2023-04-01T01:01:49;19.08;;;6.80;;
6133;SDS011;3098;42.678;23.364;2023-04-01T01:04:25;18.23;;;6.60;;
6133;SDS011;3098;42.678;23.364;2023-04-01T01:06:56;13.40;;;6.30;;
6133;SDS011;3098;42.678;23.364;2023-04-01T01:09:37;18.08;;;7.28;;
6133;SDS011;3098;42.678;23.364;2023-04-01T01:12:11;18.80;;;7.10;;
6133;SDS011;3098;42.678;23.364;2023-04-01T01:14:53;15.18;;;6.57;;
6133;SDS011;3098;42.678;23.364;2023-04-01T01:17:30;13.95;;;6.40;;
6133;SDS011;3098;42.678;23.364;2023-04-01T01:26:40;11.70;;;5.82;;
6133;SDS011;3098;42.678;23.364;2023-04-01T01:29:24;16.80;;;5.93;;
6133;SDS011;3098;42.678;23.364;2023-04-01T01:32:10;15.75;;;5.40;;
6133;SDS011;3098;42.678;23.364;2023-04-01T01:34:46;15.65;;;6.28;;
6133;SDS011;3098;42.678;23.364;2023-04-01T01:37:23;15.10;;;5.75;;
6133;SDS011;3098;42.678;23.364;2023-04-01T01:39:55;10.23;;;5.00;;
6133;SDS011;3098;42.678;23.364;2023-04-01T01:42:24;12.10;;;5.07;;
6133;SDS011;3098;42.678;23.364;2023-04-01T01:44:54;7.75;;;3.85;;
6133;SDS011;3098;42.678;23.364;2023-04-01T01:47:24;18.63;;;5.15;;
6133;SDS011;3098;42.678;23.364;2023-04-01T01:49:52;7.20;;;4.15;;
6133;SDS011;3098;42.678;23.364;2023-04-01T01:52:21;9.45;;;3.67;;
6133;SDS011;3098;42.678;23.364;2023-04-01T01:54:50;8.88;;;4.07;;
6133;SDS011;3098;42.678;23.364;2023-04-01T01:57:20;13.70;;;4.50;;
6133;SDS011;3098;42.678;23.364;2023-04-01T01:59:50;9.75;;;4.30;;
6133;SDS011;3098;42.678;23.364;2023-04-01T02:02:21;8.00;;;4.18;;
6133;SDS011;3098;42.678;23.364;2023-04-01T02:04:51;14.35;;;4.68;;
6133;SDS011;3098;42.678;23.364;2023-04-01T02:07:21;6.88;;;3.53;;
6133;SDS011;3098;42.678;23.364;2023-04-01T02:09:54;10.05;;;4.28;;
6133;SDS011;3098;42.678;23.364;2023-04-01T02:12:21;10.88;;;5.13;;
6133;SDS011;3098;42.678;23.364;2023-04-01T02:14:51;11.38;;;5.38;;
6133;SDS011;3098;42.678;23.364;2023-04-01T02:17:21;8.00;;;4.20;;
6133;SDS011;3098;42.678;23.364;2023-04-01T02:19:51;9.20;;;3.83;;
6133;SDS011;3098;42.678;23.364;2023-04-01T02:22:24;8.18;;;3.88;;
6133;SDS011;3098;42.678;23.364;2023-04-01T02:24:54;9.77;;;3.08;;
6133;SDS011;3098;42.678;23.364;2023-04-01T02:27:24;8.15;;;3.60;;
6133;SDS011;3098;42.678;23.364;2023-04-01T02:29:51;7.13;;;3.13;;
6133;SDS011;3098;42.678;23.364;2023-04-01T02:32:19;12.98;;;3.60;;
6133;SDS011;3098;42.678;23.364;2023-04-01T02:34:47;17.08;;;4.60;;
6133;SDS011;3098;42.678;23.364;2023-04-01T02:37:15;7.30;;;4.30;;
6133;SDS011;3098;42.678;23.364;2023-04-01T02:39:44;7.50;;;4.22;;
6133;SDS011;3098;42.678;23.364;2023-04-01T02:42:11;12.05;;;4.63;;
6133;SDS011;3098;42.678;23.364;2023-04-01T02:44:39;13.73;;;4.88;;
6133;SDS011;3098;42.678;23.364;2023-04-01T02:47:07;11.98;;;4.55;;
6133;SDS011;3098;42.678;23.364;2023-04-01T02:49:34;15.15;;;4.80;;
6133;SDS011;3098;42.678;23.364;2023-04-01T02:52:01;12.82;;;4.90;;
6133;SDS011;3098;42.678;23.364;2023-04-01T02:54:28;12.05;;;5.43;;
6133;SDS011;3098;42.678;23.364;2023-04-01T02:56:56;14.43;;;5.00;;
6133;SDS011;3098;42.678;23.364;2023-04-01T02:59:23;10.77;;;5.07;;
6133;SDS011;3098;42.678;23.364;2023-04-01T03:01:50;9.52;;;5.22;;
6133;SDS011;3098;42.678;23.364;2023-04-01T03:04:17;8.52;;;5.28;;
6133;SDS011;3098;42.678;23.364;2023-04-01T03:06:43;22.35;;;7.10;;
6133;SDS011;3098;42.678;23.364;2023-04-01T03:09:11;17.60;;;6.70;;
6133;SDS011;3098;42.678;23.364;2023-04-01T03:11:38;14.00;;;5.70;;
6133;SDS011;3098;42.678;23.364;2023-04-01T03:14:07;12.52;;;6.22;;
6133;SDS011;3098;42.678;23.364;2023-04-01T03:16:34;18.13;;;6.63;;
6133;SDS011;3098;42.678;23.364;2023-04-01T03:19:01;16.30;;;7.38;;
6133;SDS011;3098;42.678;23.364;2023-04-01T03:21:28;14.02;;;6.18;;
6133;SDS011;3098;42.678;23.364;2023-04-01T03:23:55;18.00;;;7.90;;
6133;SDS011;3098;42.678;23.364;2023-04-01T03:26:21;23.80;;;7.00;;
6133;SDS011;3098;42.678;23.364;2023-04-01T03:28:49;14.65;;;6.28;;
6133;SDS011;3098;42.678;23.364;2023-04-01T03:31:17;15.98;;;7.15;;
6133;SDS011;3098;42.678;23.364;2023-04-01T03:33:44;22.00;;;8.27;;
6133;SDS011;3098;42.678;23.364;2023-04-01T03:36:11;21.85;;;8.07;;
6133;SDS011;3098;42.678;23.364;2023-04-01T03:38:38;22.67;;;7.85;;
6133;SDS011;3098;42.678;23.364;2023-04-01T03:41:06;15.73;;;7.15;;
6133;SDS011;3098;42.678;23.364;2023-04-01T03:43:33;18.33;;;8.60;;
6133;SDS011;3098;42.678;23.364;2023-04-01T03:46:00;20.52;;;7.63;;
6133;SDS011;3098;42.678;23.364;2023-04-01T03:48:28;21.63;;;7.72;;
6133;SDS011;3098;42.678;23.364;2023-04-01T03:50:55;20.40;;;8.75;;
6133;SDS011;3098;42.678;23.364;2023-04-01T03:53:22;22.40;;;8.48;;
6133;SDS011;3098;42.678;23.364;2023-04-01T03:55:49;23.85;;;8.52;;
6133;SDS011;3098;42.678;23.364;2023-04-01T03:58:17;20.08;;;7.63;;
6133;SDS011;3098;42.678;23.364;2023-04-01T04:00:44;17.67;;;7.43;;
6133;SDS011;3098;42.678;23.364;2023-04-01T04:03:11;16.17;;;7.40;;
6133;SDS011;3098;42.678;23.364;2023-04-01T04:05:46;17.15;;;7.07;;
6133;SDS011;3098;42.678;23.364;2023-04-01T04:08:14;18.63;;;7.88;;
6133;SDS011;3098;42.678;23.364;2023-04-01T04:10:41;19.23;;;7.88;;
6133;SDS011;3098;42.678;23.364;2023-04-01T04:13:08;23.90;;;8.40;;
6133;SDS011;3098;42.678;23.364;2023-04-01T04:15:35;17.38;;;7.85;;
6133;SDS011;3098;42.678;23.364;2023-04-01T04:18:02;15.45;;;6.57;;
6133;SDS011;3098;42.678;23.364;2023-04-01T04:20:29;15.40;;;6.05;;
6133;SDS011;3098;42.678;23.364;2023-04-01T04:22:57;12.98;;;5.32;;
6133;SDS011;3098;42.678;23.364;2023-04-01T04:25:26;15.18;;;5.50;;
6133;SDS011;3098;42.678;23.364;2023-04-01T04:27:53;22.35;;;5.65;;
6133;SDS011;3098;42.678;23.364;2023-04-01T04:30:21;18.02;;;6.07;;
6133;SDS011;3098;42.678;23.364;2023-04-01T04:32:48;14.88;;;5.72;;
6133;SDS011;3098;42.678;23.364;2023-04-01T04:35:15;12.85;;;5.70;;
6133;SDS011;3098;42.678;23.364;2023-04-01T04:37:43;12.52;;;5.10;;
6133;SDS011;3098;42.678;23.364;2023-04-01T04:40:12;16.63;;;6.70;;
6133;SDS011;3098;42.678;23.364;2023-04-01T04:42:39;14.18;;;6.03;;
6133;SDS011;3098;42.678;23.364;2023-04-01T04:45:06;17.50;;;6.88;;
6133;SDS011;3098;42.678;23.364;2023-04-01T04:47:34;12.68;;;6.20;;
6133;SDS011;3098;42.678;23.364;2023-04-01T04:50:01;17.75;;;6.63;;
6133;SDS011;3098;42.678;23.364;2023-04-01T04:52:28;16.33;;;6.32;;
6133;SDS011;3098;42.678;23.364;2023-04-01T04:54:55;14.50;;;5.65;;
6133;SDS011;3098;42.678;23.364;2023-04-01T04:57:23;11.27;;;5.30;;
6133;SDS011;3098;42.678;23.364;2023-04-01T04:59:50;19.73;;;7.13;;
6133;SDS011;3098;42.678;23.364;2023-04-01T05:02:17;21.08;;;6.47;;
6133;SDS011;3098;42.678;23.364;2023-04-01T05:04:44;17.70;;;5.88;;
6133;SDS011;3098;42.678;23.364;2023-04-01T05:07:11;13.10;;;5.95;;
6133;SDS011;3098;42.678;23.364;2023-04-01T05:09:38;16.65;;;6.32;;
6133;SDS011;3098;42.678;23.364;2023-04-01T05:12:05;19.55;;;5.95;;
6133;SDS011;3098;42.678;23.364;2023-04-01T05:14:33;11.80;;;6.72;;
6133;SDS011;3098;42.678;23.364;2023-04-01T05:17:00;15.15;;;6.82;;
6133;SDS011;3098;42.678;23.364;2023-04-01T05:19:27;11.68;;;5.70;;
6133;SDS011;3098;42.678;23.364;2023-04-01T05:21:54;12.68;;;5.72;;
6133;SDS011;3098;42.678;23.364;2023-04-01T05:24:20;13.95;;;4.20;;
6133;SDS011;3098;42.678;23.364;2023-04-01T05:26:47;10.13;;;3.83;;
6133;SDS011;3098;42.678;23.364;2023-04-01T05:29:14;14.88;;;5.32;;
6133;SDS011;3098;42.678;23.364;2023-04-01T05:31:42;11.85;;;5.30;;
6133;SDS011;3098;42.678;23.364;2023-04-01T05:34:09;12.32;;;5.22;;
6133;SDS011;3098;42.678;23.364;2023-04-01T05:36:36;12.02;;;5.40;;
6133;SDS011;3098;42.678;23.364;2023-04-01T05:39:03;9.43;;;4.43;;
6133;SDS011;3098;42.678;23.364;2023-04-01T05:41:30;10.02;;;4.75;;
6133;SDS011;3098;42.678;23.364;2023-04-01T05:43:57;13.18;;;3.90;;
6133;SDS011;3098;42.678;23.364;2023-04-01T05:46:24;10.10;;;4.85;;
6133;SDS011;3098;42.678;23.364;2023-04-01T05:48:53;8.43;;;4.85;;
6133;SDS011;3098;42.678;23.364;2023-04-01T05:51:19;7.45;;;4.68;;
6133;SDS011;3098;42.678;23.364;2023-04-01T05:53:46;9.18;;;4.07;;
6133;SDS011;3098;42.678;23.364;2023-04-01T05:56:14;9.48;;;4.45;;
6133;SDS011;3098;42.678;23.364;2023-04-01T05:58:41;7.30;;;3.83;;
6133;SDS011;3098;42.678;23.364;2023-04-01T06:01:09;9.70;;;4.50;;
6133;SDS011;3098;42.678;23.364;2023-04-01T06:03:37;17.33;;;4.68;;
6133;SDS011;3098;42.678;23.364;2023-04-01T06:06:08;8.63;;;3.83;;
6133;SDS011;3098;42.678;23.364;2023-04-01T06:08:40;7.50;;;3.92;;
6133;SDS011;3098;42.678;23.364;2023-04-01T06:11:13;7.68;;;4.55;;
6133;SDS011;3098;42.678;23.364;2023-04-01T06:13:51;12.18;;;4.60;;
6133;SDS011;3098;42.678;23.364;2023-04-01T06:16:32;14.57;;;5.13;;
6133;SDS011;3098;42.678;23.364;2023-04-01T06:19:20;13.65;;;6.10;;
6133;SDS011;3098;42.678;23.364;2023-04-01T06:22:08;11.30;;;6.03;;
6133;SDS011;3098;42.678;23.364;2023-04-01T06:25:00;8.75;;;4.97;;
6133;SDS011;3098;42.678;23.364;2023-04-01T06:27:45;10.75;;;6.40;;
6133;SDS011;3098;42.678;23.364;2023-04-01T06:33:18;11.60;;;5.05;;
6133;SDS011;3098;42.678;23.364;2023-04-01T06:36:06;13.38;;;5.38;;
6133;SDS011;3098;42.678;23.364;2023-04-01T06:38:46;15.95;;;5.22;;
6133;SDS011;3098;42.678;23.364;2023-04-01T06:41:35;8.73;;;4.50;;
6133;SDS011;3098;42.678;23.364;2023-04-01T06:44:16;13.85;;;5.22;;
6133;SDS011;3098;42.678;23.364;2023-04-01T06:46:50;10.20;;;4.75;;
6133;SDS011;3098;42.678;23.364;2023-04-01T06:49:30;9.85;;;4.75;;
6133;SDS011;3098;42.678;23.364;2023-04-01T06:52:09;15.90;;;4.40;;
6133;SDS011;3098;42.678;23.364;2023-04-01T06:54:48;16.25;;;5.10;;
6133;SDS011;3098;42.678;23.364;2023-04-01T06:57:20;13.90;;;5.25;;
6133;SDS011;3098;42.678;23.364;2023-04-01T06:59:55;14.50;;;4.63;;
6133;SDS011;3098;42.678;23.364;2023-04-01T07:02:26;8.85;;;4.88;;
6133;SDS011;3098;42.678;23.364;2023-04-01T07:05:00;8.75;;;5.00;;
6133;SDS011;3098;42.678;23.364;2023-04-01T07:07:30;12.95;;;4.95;;
6133;SDS011;3098;42.678;23.364;2023-04-01T07:10:05;13.05;;;4.80;;
6133;SDS011;3098;42.678;23.364;2023-04-01T07:12:39;14.38;;;4.55;;
6133;SDS011;3098;42.678;23.364;2023-04-01T07:15:16;11.40;;;4.43;;
6133;SDS011;3098;42.678;23.364;2023-04-01T07:17:48;11.32;;;3.92;;
6133;SDS011;3098;42.678;23.364;2023-04-01T07:20:23;10.50;;;3.90;;
6133;SDS011;3098;42.678;23.364;2023-04-01T07:22:52;9.35;;;4.40;;
6133;SDS011;3098;42.678;23.364;2023-04-01T07:25:25;10.65;;;4.97;;
6133;SDS011;3098;42.678;23.364;2023-04-01T07:27:56;13.95;;;4.53;;
6133;SDS011;3098;42.678;23.364;2023-04-01T07:30:32;13.95;;;4.07;;
6133;SDS011;3098;42.678;23.364;2023-04-01T07:33:11;18.45;;;4.60;;
6133;SDS011;3098;42.678;23.364;2023-04-01T07:35:43;20.15;;;5.20;;
6133;SDS011;3098;42.678;23.364;2023-04-01T07:38:20;8.98;;;4.05;;
6133;SDS011;3098;42.678;23.364;2023-04-01T07:41:00;11.75;;;4.90;;
6133;SDS011;3098;42.678;23.364;2023-04-01T07:43:38;16.98;;;7.10;;
6133;SDS011;3098;42.678;23.364;2023-04-01T07:46:14;12.05;;;4.78;;
6133;SDS011;3098;42.678;23.364;2023-04-01T07:48:52;12.27;;;4.40;;
6133;SDS011;3098;42.678;23.364;2023-04-01T07:51:26;15.63;;;4.95;;
6133;SDS011;3098;42.678;23.364;2023-04-01T07:54:00;8.15;;;4.65;;
6133;SDS011;3098;42.678;23.364;2023-04-01T07:56:36;15.52;;;4.38;;
6133;SDS011;3098;42.678;23.364;2023-04-01T07:59:10;17.38;;;4.22;;
6133;SDS011;3098;42.678;23.364;2023-04-01T08:01:46;6.10;;;3.72;;
6133;SDS011;3098;42.678;23.364;2023-04-01T08:04:21;8.68;;;3.90;;
6133;SDS011;3098;42.678;23.364;2023-04-01T08:06:56;7.15;;;3.72;;
6133;SDS011;3098;42.678;23.364;2023-04-01T08:09:29;7.63;;;4.00;;
6133;SDS011;3098;42.678;23.364;2023-04-01T08:12:07;16.92;;;4.07;;
6133;SDS011;3098;42.678;23.364;2023-04-01T08:14:46;10.18;;;4.82;;
6133;SDS011;3098;42.678;23.364;2023-04-01T08:17:23;8.18;;;3.25;;
6133;SDS011;3098;42.678;23.364;2023-04-01T08:20:02;8.90;;;3.63;;
6133;SDS011;3098;42.678;23.364;2023-04-01T08:22:41;7.57;;;3.13;;
6133;SDS011;3098;42.678;23.364;2023-04-01T08:25:13;9.30;;;3.67;;
6133;SDS011;3098;42.678;23.364;2023-04-01T08:27:46;14.02;;;5.60;;
6133;SDS011;3098;42.678;23.364;2023-04-01T08:30:18;8.38;;;3.78;;
6133;SDS011;3098;42.678;23.364;2023-04-01T08:32:48;11.35;;;4.15;;
6133;SDS011;3098;42.678;23.364;2023-04-01T08:35:21;10.70;;;3.65;;
6133;SDS011;3098;42.678;23.364;2023-04-01T08:37:54;14.88;;;4.38;;
6133;SDS011;3098;42.678;23.364;2023-04-01T08:40:32;9.73;;;3.83;;
6133;SDS011;3098;42.678;23.364;2023-04-01T08:43:14;6.70;;;2.95;;
6133;SDS011;3098;42.678;23.364;2023-04-01T08:46:03;8.43;;;2.83;;
6133;SDS011;3098;42.678;23.364;2023-04-01T08:48:48;8.43;;;3.83;;
6133;SDS011;3098;42.678;23.364;2023-04-01T08:51:53;7.97;;;3.28;;
6133;SDS011;3098;42.678;23.364;2023-04-01T08:54:45;8.73;;;3.75;;
6133;SDS011;3098;42.678;23.364;2023-04-01T08:57:26;10.85;;;3.65;;
6133;SDS011;3098;42.678;23.364;2023-04-01T09:00:14;6.03;;;3.30;;
6133;SDS011;3098;42.678;23.364;2023-04-01T09:02:56;6.15;;;3.33;;
6133;SDS011;3098;42.678;23.364;2023-04-01T09:08:51;8.80;;;3.55;;
6133;SDS011;3098;42.678;23.364;2023-04-01T09:11:30;6.70;;;3.72;;
6133;SDS011;3098;42.678;23.364;2023-04-01T09:14:17;7.15;;;3.90;;
6133;SDS011;3098;42.678;23.364;2023-04-01T09:20:19;11.40;;;4.05;;
6133;SDS011;3098;42.678;23.364;2023-04-01T09:23:15;5.15;;;2.75;;
6133;SDS011;3098;42.678;23.364;2023-04-01T09:26:03;5.55;;;2.60;;
6133;SDS011;3098;42.678;23.364;2023-04-01T09:28:41;7.55;;;2.63;;
6133;SDS011;3098;42.678;23.364;2023-04-01T09:31:26;11.60;;;3.33;;
6133;SDS011;3098;42.678;23.364;2023-04-01T09:34:19;8.10;;;3.20;;
6133;SDS011;3098;42.678;23.364;2023-04-01T09:37:19;6.63;;;2.85;;
6133;SDS011;3098;42.678;23.364;2023-04-01T09:40:00;4.80;;;2.80;;
6133;SDS011;3098;42.678;23.364;2023-04-01T09:42:45;5.55;;;2.78;;
6133;SDS011;3098;42.678;23.364;2023-04-01T09:45:25;8.10;;;2.90;;
6133;SDS011;3098;42.678;23.364;2023-04-01T09:48:05;6.97;;;3.13;;
6133;SDS011;3098;42.678;23.364;2023-04-01T09:50:46;5.45;;;2.83;;
6133;SDS011;3098;42.678;23.364;2023-04-01T09:53:23;5.05;;;2.50;;
6133;SDS011;3098;42.678;23.364;2023-04-01T09:56:08;6.22;;;2.58;;
6133;SDS011;3098;42.678;23.364;2023-04-01T10:05:28;5.70;;;3.10;;
6133;SDS011;3098;42.678;23.364;2023-04-01T10:08:26;5.45;;;2.97;;
6133;SDS011;3098;42.678;23.364;2023-04-01T10:11:37;5.15;;;2.83;;
6133;SDS011;3098;42.678;23.364;2023-04-01T10:17:28;13.32;;;3.83;;
6133;SDS011;3098;42.678;23.364;2023-04-01T10:26:27;10.38;;;3.03;;
6133;SDS011;3098;42.678;23.364;2023-04-01T10:29:18;7.13;;;3.13;;
6133;SDS011;3098;42.678;23.364;2023-04-01T10:32:11;8.88;;;3.20;;
6133;SDS011;3098;42.678;23.364;2023-04-01T10:38:11;5.93;;;3.00;;
6133;SDS011;3098;42.678;23.364;2023-04-01T10:50:28;10.27;;;3.08;;
6133;SDS011;3098;42.678;23.364;2023-04-01T10:59:31;8.40;;;3.13;;
6133;SDS011;3098;42.678;23.364;2023-04-01T11:02:28;9.00;;;2.70;;
6133;SDS011;3098;42.678;23.364;2023-04-01T11:05:40;10.18;;;2.92;;
6133;SDS011;3098;42.678;23.364;2023-04-01T11:12:05;6.10;;;3.20;;
6133;SDS011;3098;42.678;23.364;2023-04-01T11:21:10;8.25;;;2.53;;
6133;SDS011;3098;42.678;23.364;2023-04-01T11:26:56;6.30;;;3.03;;
6133;SDS011;3098;42.678;23.364;2023-04-01T11:29:46;15.23;;;3.80;;
6133;SDS011;3098;42.678;23.364;2023-04-01T11:32:29;9.77;;;3.30;;
6133;SDS011;3098;42.678;23.364;2023-04-01T11:38:15;10.50;;;3.33;;
6133;SDS011;3098;42.678;23.364;2023-04-01T11:40:52;4.70;;;2.30;;
6133;SDS011;3098;42.678;23.364;2023-04-01T11:43:27;5.72;;;2.47;;
6133;SDS011;3098;42.678;23.364;2023-04-01T11:46:03;3.67;;;1.77;;
6133;SDS011;3098;42.678;23.364;2023-04-01T11:51:39;6.85;;;2.03;;
6133;SDS011;3098;42.678;23.364;2023-04-01T11:54:25;10.15;;;2.20;;
6133;SDS011;3098;42.678;23.364;2023-04-01T11:57:09;4.13;;;1.92;;
6133;SDS011;3098;42.678;23.364;2023-04-01T12:00:21;9.82;;;2.70;;
6133;SDS011;3098;42.678;23.364;2023-04-01T12:03:08;4.57;;;2.40;;
6133;SDS011;3098;42.678;23.364;2023-04-01T12:05:48;8.73;;;2.75;;
6133;SDS011;3098;42.678;23.364;2023-04-01T12:08:27;7.30;;;2.97;;
6133;SDS011;3098;42.678;23.364;2023-04-01T12:11:04;8.95;;;3.40;;
6133;SDS011;3098;42.678;23.364;2023-04-01T12:13:42;7.70;;;3.30;;
6133;SDS011;3098;42.678;23.364;2023-04-01T12:16:19;16.90;;;6.65;;
6133;SDS011;3098;42.678;23.364;2023-04-01T12:19:08;5.80;;;3.10;;
6133;SDS011;3098;42.678;23.364;2023-04-01T12:21:43;5.72;;;3.00;;
6133;SDS011;3098;42.678;23.364;2023-04-01T12:24:25;13.38;;;3.72;;
6133;SDS011;3098;42.678;23.364;2023-04-01T12:27:06;7.55;;;3.63;;
6133;SDS011;3098;42.678;23.364;2023-04-01T12:29:53;8.75;;;3.20;;
6133;SDS011;3098;42.678;23.364;2023-04-01T12:32:34;6.63;;;3.08;;
6133;SDS011;3098;42.678;23.364;2023-04-01T12:35:14;10.32;;;3.38;;
6133;SDS011;3098;42.678;23.364;2023-04-01T12:37:50;15.30;;;2.70;;
6133;SDS011;3098;42.678;23.364;2023-04-01T12:40:31;4.32;;;1.92;;
6133;SDS011;3098;42.678;23.364;2023-04-01T12:46:13;6.30;;;2.97;;
6133;SDS011;3098;42.678;23.364;2023-04-01T12:48:53;4.10;;;2.70;;
6133;SDS011;3098;42.678;23.364;2023-04-01T12:51:39;5.00;;;3.17;;
6133;SDS011;3098;42.678;23.364;2023-04-01T12:54:22;4.60;;;2.75;;
6133;SDS011;3098;42.678;23.364;2023-04-01T12:57:10;8.02;;;3.08;;
6133;SDS011;3098;42.678;23.364;2023-04-01T13:00:00;9.55;;;3.28;;
6133;SDS011;3098;42.678;23.364;2023-04-01T13:02:40;5.38;;;2.97;;
6133;SDS011;3098;42.678;23.364;2023-04-01T13:05:24;10.30;;;4.13;;
6133;SDS011;3098;42.678;23.364;2023-04-01T13:08:29;5.72;;;3.03;;
6133;SDS011;3098;42.678;23.364;2023-04-01T13:11:13;3.55;;;2.08;;
6133;SDS011;3098;42.678;23.364;2023-04-01T13:16:57;4.93;;;2.88;;
6133;SDS011;3098;42.678;23.364;2023-04-01T13:19:31;7.00;;;2.90;;
6133;SDS011;3098;42.678;23.364;2023-04-01T13:22:05;7.50;;;3.40;;
6133;SDS011;3098;42.678;23.364;2023-04-01T13:24:41;5.05;;;3.08;;
6133;SDS011;3098;42.678;23.364;2023-04-01T13:27:17;5.25;;;3.05;;
6133;SDS011;3098;42.678;23.364;2023-04-01T13:29:52;9.48;;;4.53;;
6133;SDS011;3098;42.678;23.364;2023-04-01T13:32:29;7.78;;;4.43;;
6133;SDS011;3098;42.678;23.364;2023-04-01T13:35:15;5.97;;;3.47;;
6133;SDS011;3098;42.678;23.364;2023-04-01T13:37:56;6.85;;;3.80;;
6133;SDS011;3098;42.678;23.364;2023-04-01T13:40:43;8.48;;;3.88;;
6133;SDS011;3098;42.678;23.364;2023-04-01T13:43:21;14.95;;;6.45;;
6133;SDS011;3098;42.678;23.364;2023-04-01T13:46:03;9.98;;;5.82;;
6133;SDS011;3098;42.678;23.364;2023-04-01T13:48:46;13.88;;;5.45;;
6133;SDS011;3098;42.678;23.364;2023-04-01T13:51:40;8.02;;;3.20;;
6133;SDS011;3098;42.678;23.364;2023-04-01T13:54:37;12.65;;;6.20;;
6133;SDS011;3098;42.678;23.364;2023-04-01T13:57:31;10.15;;;4.60;;
6133;SDS011;3098;42.678;23.364;2023-04-01T14:06:10;15.70;;;6.55;;
6133;SDS011;3098;42.678;23.364;2023-04-01T14:08:49;12.73;;;5.78;;
6133;SDS011;3098;42.678;23.364;2023-04-01T14:11:30;9.85;;;5.30;;
6133;SDS011;3098;42.678;23.364;2023-04-01T14:14:08;14.73;;;5.97;;
6133;SDS011;3098;42.678;23.364;2023-04-01T14:16:55;8.43;;;4.75;;
6133;SDS011;3098;42.678;23.364;2023-04-01T14:19:33;8.98;;;4.78;;
6133;SDS011;3098;42.678;23.364;2023-04-01T14:22:20;11.25;;;3.80;;
6133;SDS011;3098;42.678;23.364;2023-04-01T14:27:54;9.63;;;3.58;;
6133;SDS011;3098;42.678;23.364;2023-04-01T14:30:40;9.02;;;2.83;;
6133;SDS011;3098;42.678;23.364;2023-04-01T14:33:28;11.73;;;3.53;;
6133;SDS011;3098;42.678;23.364;2023-04-01T14:36:08;12.70;;;3.38;;
6133;SDS011;3098;42.678;23.364;2023-04-01T14:38:59;8.68;;;3.80;;
6133;SDS011;3098;42.678;23.364;2023-04-01T14:41:39;7.80;;;3.88;;
6133;SDS011;3098;42.678;23.364;2023-04-01T14:44:17;4.53;;;2.50;;
6133;SDS011;3098;42.678;23.364;2023-04-01T14:50:03;4.75;;;2.47;;
6133;SDS011;3098;42.678;23.364;2023-04-01T14:52:36;5.13;;;2.47;;
6133;SDS011;3098;42.678;23.364;2023-04-01T14:55:15;7.22;;;2.50;;
6133;SDS011;3098;42.678;23.364;2023-04-01T14:58:04;6.43;;;2.25;;
6133;SDS011;3098;42.678;23.364;2023-04-01T15:03:28;5.68;;;2.20;;
6133;SDS011;3098;42.678;23.364;2023-04-01T15:06:13;3.72;;;2.30;;
6133;SDS011;3098;42.678;23.364;2023-04-01T15:08:57;3.85;;;2.10;;
6133;SDS011;3098;42.678;23.364;2023-04-01T15:11:33;2.50;;;1.88;;
6133;SDS011;3098;42.678;23.364;2023-04-01T15:14:10;9.40;;;3.08;;
6133;SDS011;3098;42.678;23.364;2023-04-01T15:17:00;5.40;;;2.53;;
6133;SDS011;3098;42.678;23.364;2023-04-01T15:19:47;5.25;;;2.50;;
6133;SDS011;3098;42.678;23.364;2023-04-01T15:22:29;3.63;;;2.20;;
6133;SDS011;3098;42.678;23.364;2023-04-01T15:25:14;2.30;;;2.00;;
6133;SDS011;3098;42.678;23.364;2023-04-01T15:27:51;3.78;;;2.40;;
6133;SDS011;3098;42.678;23.364;2023-04-01T15:30:32;4.45;;;1.88;;
6133;SDS011;3098;42.678;23.364;2023-04-01T15:33:14;6.72;;;2.20;;
6133;SDS011;3098;42.678;23.364;2023-04-01T15:35:52;3.78;;;2.17;;
6133;SDS011;3098;42.678;23.364;2023-04-01T15:38:33;7.25;;;3.28;;
6133;SDS011;3098;42.678;23.364;2023-04-01T15:41:09;5.88;;;2.20;;
6133;SDS011;3098;42.678;23.364;2023-04-01T15:43:41;7.07;;;2.92;;
6133;SDS011;3098;42.678;23.364;2023-04-01T15:46:20;5.90;;;2.72;;
6133;SDS011;3098;42.678;23.364;2023-04-01T15:49:07;57.80;;;20.92;;
6133;SDS011;3098;42.678;23.364;2023-04-01T15:51:43;5.93;;;3.10;;
6133;SDS011;3098;42.678;23.364;2023-04-01T15:54:31;5.80;;;2.80;;
6133;SDS011;3098;42.678;23.364;2023-04-01T15:57:09;3.72;;;2.30;;
6133;SDS011;3098;42.678;23.364;2023-04-01T15:59:57;1.33;;;1.02;;
6133;SDS011;3098;42.678;23.364;2023-04-01T16:02:43;5.00;;;1.77;;
6133;SDS011;3098;42.678;23.364;2023-04-01T16:05:30;3.50;;;2.15;;
6133;SDS011;3098;42.678;23.364;2023-04-01T16:08:14;5.88;;;2.80;;
6133;SDS011;3098;42.678;23.364;2023-04-01T16:11:15;3.88;;;2.28;;
6133;SDS011;3098;42.678;23.364;2023-04-01T16:13:55;6.10;;;2.72;;
6133;SDS011;3098;42.678;23.364;2023-04-01T16:19:32;5.85;;;2.38;;
6133;SDS011;3098;42.678;23.364;2023-04-01T16:22:05;8.82;;;3.78;;
6133;SDS011;3098;42.678;23.364;2023-04-01T16:24:38;6.22;;;3.20;;
6133;SDS011;3098;42.678;23.364;2023-04-01T16:27:13;6.05;;;3.10;;
6133;SDS011;3098;42.678;23.364;2023-04-01T16:29:46;7.03;;;3.60;;
6133;SDS011;3098;42.678;23.364;2023-04-01T16:32:35;5.80;;;2.83;;
6133;SDS011;3098;42.678;23.364;2023-04-01T16:35:21;6.90;;;3.25;;
6133;SDS011;3098;42.678;23.364;2023-04-01T16:37:55;8.30;;;3.42;;
6133;SDS011;3098;42.678;23.364;2023-04-01T16:40:34;11.18;;;3.63;;
6133;SDS011;3098;42.678;23.364;2023-04-01T16:43:16;5.32;;;3.17;;
6133;SDS011;3098;42.678;23.364;2023-04-01T16:45:57;4.07;;;2.15;;
6133;SDS011;3098;42.678;23.364;2023-04-01T16:48:52;5.30;;;3.00;;
6133;SDS011;3098;42.678;23.364;2023-04-01T16:51:31;12.35;;;3.65;;
6133;SDS011;3098;42.678;23.364;2023-04-01T16:54:04;6.10;;;3.10;;
6133;SDS011;3098;42.678;23.364;2023-04-01T16:56:38;7.38;;;3.58;;
6133;SDS011;3098;42.678;23.364;2023-04-01T16:59:15;7.18;;;2.65;;
6133;SDS011;3098;42.678;23.364;2023-04-01T17:01:51;7.88;;;3.40;;
6133;SDS011;3098;42.678;23.364;2023-04-01T17:04:24;9.98;;;2.72;;
6133;SDS011;3098;42.678;23.364;2023-04-01T17:07:01;4.20;;;2.13;;
6133;SDS011;3098;42.678;23.364;2023-04-01T17:09:44;3.33;;;1.88;;
6133;SDS011;3098;42.678;23.364;2023-04-01T17:12:23;2.78;;;1.88;;
6133;SDS011;3098;42.678;23.364;2023-04-01T17:14:59;5.50;;;2.65;;
6133;SDS011;3098;42.678;23.364;2023-04-01T17:17:37;5.65;;;2.60;;
6133;SDS011;3098;42.678;23.364;2023-04-01T17:20:13;6.72;;;3.80;;
6133;SDS011;3098;42.678;23.364;2023-04-01T17:22:52;3.22;;;2.20;;